sensor_id;sensor_type;location;lat;lon;timestamp;P1;durP1;ratioP1;P2;durP2;ratioP2
46417;SDS011;69884;64.758;20.962;2023-08-08T02:13:53;22.85;;;20.55;;
46417;SDS011;69884;64.758;20.962;2023-08-08T02:58:41;20.38;;;18.50;;
46417;SDS011;69884;64.758;20.962;2023-08-08T03:10:52;20.50;;;18.40;;
46417;SDS011;69884;64.758;20.962;2023-08-08T03:16:29;22.13;;;19.80;;
46417;SDS011;69884;64.758;20.962;2023-08-08T03:47:21;17.63;;;15.95;;
46417;SDS011;69884;64.758;20.962;2023-08-08T05:49:38;11.30;;;10.27;;
46417;SDS011;69884;64.758;20.962;2023-08-08T06:11:09;11.15;;;9.93;;
46417;SDS011;69884;64.758;20.962;2023-08-08T06:13:41;10.37;;;9.27;;
46417;SDS011;69884;64.758;20.962;2023-08-08T06:22:46;10.48;;;9.15;;
46417;SDS011;69884;64.758;20.962;2023-08-08T06:25:36;10.63;;;9.52;;
46417;SDS011;69884;64.758;20.962;2023-08-08T06:28:12;10.02;;;8.82;;
46417;SDS011;69884;64.758;20.962;2023-08-08T06:30:51;9.63;;;8.60;;
46417;SDS011;69884;64.758;20.962;2023-08-08T06:33:31;11.57;;;9.37;;
46417;SDS011;69884;64.758;20.962;2023-08-08T06:36:22;11.23;;;9.95;;
46417;SDS011;69884;64.758;20.962;2023-08-08T06:38:53;10.05;;;8.90;;
46417;SDS011;69884;64.758;20.962;2023-08-08T06:41:54;10.10;;;9.05;;
46417;SDS011;69884;64.758;20.962;2023-08-08T08:02:20;10.38;;;7.93;;
46417;SDS011;69884;64.758;20.962;2023-08-08T09:45:59;9.13;;;7.73;;
46417;SDS011;69884;64.758;20.962;2023-08-08T10:13:19;9.80;;;7.90;;
46417;SDS011;69884;64.758;20.962;2023-08-08T10:34:49;9.18;;;7.32;;
46417;SDS011;69884;64.758;20.962;2023-08-08T11:11:26;9.30;;;6.90;;
46417;SDS011;69884;64.758;20.962;2023-08-08T12:18:53;6.38;;;5.25;;
46417;SDS011;69884;64.758;20.962;2023-08-08T12:31:10;7.70;;;5.05;;
46417;SDS011;69884;64.758;20.962;2023-08-08T12:37:05;7.10;;;4.60;;
46417;SDS011;69884;64.758;20.962;2023-08-08T12:43:16;6.40;;;4.60;;
46417;SDS011;69884;64.758;20.962;2023-08-08T12:45:50;6.90;;;4.68;;
46417;SDS011;69884;64.758;20.962;2023-08-08T12:51:19;9.13;;;4.75;;
46417;SDS011;69884;64.758;20.962;2023-08-08T13:08:54;7.57;;;4.10;;
46417;SDS011;69884;64.758;20.962;2023-08-08T13:11:19;15.98;;;6.70;;
46417;SDS011;69884;64.758;20.962;2023-08-08T13:13:45;15.00;;;7.10;;
46417;SDS011;69884;64.758;20.962;2023-08-08T13:16:19;11.10;;;7.13;;
46417;SDS011;69884;64.758;20.962;2023-08-08T13:18:56;9.63;;;7.40;;
46417;SDS011;69884;64.758;20.962;2023-08-08T13:21:21;7.28;;;6.05;;
46417;SDS011;69884;64.758;20.962;2023-08-08T13:23:54;7.35;;;5.35;;
46417;SDS011;69884;64.758;20.962;2023-08-08T13:26:19;7.10;;;4.87;;
46417;SDS011;69884;64.758;20.962;2023-08-08T13:28:50;7.60;;;4.87;;
46417;SDS011;69884;64.758;20.962;2023-08-08T13:31:18;6.05;;;4.30;;
46417;SDS011;69884;64.758;20.962;2023-08-08T13:33:47;7.70;;;4.90;;
46417;SDS011;69884;64.758;20.962;2023-08-08T13:39:08;8.77;;;5.30;;
46417;SDS011;69884;64.758;20.962;2023-08-08T13:45:05;15.27;;;6.22;;
46417;SDS011;69884;64.758;20.962;2023-08-08T13:47:33;15.00;;;6.53;;
46417;SDS011;69884;64.758;20.962;2023-08-08T13:59:16;18.80;;;7.18;;
46417;SDS011;69884;64.758;20.962;2023-08-08T14:24:27;12.85;;;5.57;;
46417;SDS011;69884;64.758;20.962;2023-08-08T14:29:33;15.30;;;6.10;;
46417;SDS011;69884;64.758;20.962;2023-08-08T14:31:59;17.45;;;5.97;;
46417;SDS011;69884;64.758;20.962;2023-08-08T14:34:30;13.87;;;6.57;;
46417;SDS011;69884;64.758;20.962;2023-08-08T14:36:58;13.88;;;6.18;;
46417;SDS011;69884;64.758;20.962;2023-08-08T14:39:24;11.02;;;5.47;;
46417;SDS011;69884;64.758;20.962;2023-08-08T14:41:49;14.53;;;6.07;;
46417;SDS011;69884;64.758;20.962;2023-08-08T14:44:15;13.82;;;6.20;;
46417;SDS011;69884;64.758;20.962;2023-08-08T14:46:41;9.23;;;5.13;;
46417;SDS011;69884;64.758;20.962;2023-08-08T14:49:06;12.70;;;6.22;;
46417;SDS011;69884;64.758;20.962;2023-08-08T14:51:32;8.57;;;5.18;;
46417;SDS011;69884;64.758;20.962;2023-08-08T14:53:57;10.93;;;5.63;;
46417;SDS011;69884;64.758;20.962;2023-08-08T14:56:23;10.10;;;5.43;;
46417;SDS011;69884;64.758;20.962;2023-08-08T14:58:49;8.63;;;5.30;;
46417;SDS011;69884;64.758;20.962;2023-08-08T15:01:14;8.80;;;5.07;;
46417;SDS011;69884;64.758;20.962;2023-08-08T15:03:39;8.90;;;5.15;;
46417;SDS011;69884;64.758;20.962;2023-08-08T15:06:07;7.43;;;4.82;;
46417;SDS011;69884;64.758;20.962;2023-08-08T15:08:33;7.97;;;4.53;;
46417;SDS011;69884;64.758;20.962;2023-08-08T15:10:58;6.45;;;4.32;;
46417;SDS011;69884;64.758;20.962;2023-08-08T15:13:23;6.13;;;4.55;;
46417;SDS011;69884;64.758;20.962;2023-08-08T15:15:52;7.78;;;4.78;;
46417;SDS011;69884;64.758;20.962;2023-08-08T15:18:17;5.75;;;4.60;;
46417;SDS011;69884;64.758;20.962;2023-08-08T15:20:44;4.67;;;3.80;;
46417;SDS011;69884;64.758;20.962;2023-08-08T15:23:12;4.40;;;4.00;;
46417;SDS011;69884;64.758;20.962;2023-08-08T15:25:38;4.93;;;3.77;;
46417;SDS011;69884;64.758;20.962;2023-08-08T15:28:15;6.70;;;3.78;;
46417;SDS011;69884;64.758;20.962;2023-08-08T15:30:44;6.65;;;3.95;;
46417;SDS011;69884;64.758;20.962;2023-08-08T15:35:47;4.93;;;3.38;;
46417;SDS011;69884;64.758;20.962;2023-08-08T15:38:18;3.47;;;2.73;;
46417;SDS011;69884;64.758;20.962;2023-08-08T15:40:51;5.05;;;2.70;;
46417;SDS011;69884;64.758;20.962;2023-08-08T15:43:16;4.00;;;2.53;;
46417;SDS011;69884;64.758;20.962;2023-08-08T15:45:44;3.13;;;2.30;;
46417;SDS011;69884;64.758;20.962;2023-08-08T15:48:10;4.73;;;2.40;;
46417;SDS011;69884;64.758;20.962;2023-08-08T15:50:43;4.40;;;2.45;;
46417;SDS011;69884;64.758;20.962;2023-08-08T15:53:18;3.88;;;2.10;;
46417;SDS011;69884;64.758;20.962;2023-08-08T15:55:48;4.60;;;2.00;;
46417;SDS011;69884;64.758;20.962;2023-08-08T15:58:23;4.18;;;1.80;;
46417;SDS011;69884;64.758;20.962;2023-08-08T16:04:16;3.30;;;1.40;;
46417;SDS011;69884;64.758;20.962;2023-08-08T16:06:44;2.20;;;1.45;;
46417;SDS011;69884;64.758;20.962;2023-08-08T16:09:15;3.53;;;1.48;;
46417;SDS011;69884;64.758;20.962;2023-08-08T16:14:40;2.65;;;1.30;;
46417;SDS011;69884;64.758;20.962;2023-08-08T16:17:20;1.95;;;1.33;;
46417;SDS011;69884;64.758;20.962;2023-08-08T16:19:48;4.40;;;1.70;;
46417;SDS011;69884;64.758;20.962;2023-08-08T16:25:26;3.50;;;1.30;;
46417;SDS011;69884;64.758;20.962;2023-08-08T16:28:16;2.40;;;1.15;;
46417;SDS011;69884;64.758;20.962;2023-08-08T16:31:09;3.25;;;1.15;;
46417;SDS011;69884;64.758;20.962;2023-08-08T16:33:52;2.83;;;1.30;;
46417;SDS011;69884;64.758;20.962;2023-08-08T16:39:25;3.10;;;0.80;;
46417;SDS011;69884;64.758;20.962;2023-08-08T16:42:09;2.80;;;0.80;;
46417;SDS011;69884;64.758;20.962;2023-08-08T16:44:56;4.65;;;0.80;;
46417;SDS011;69884;64.758;20.962;2023-08-08T16:48:03;1.77;;;0.70;;
46417;SDS011;69884;64.758;20.962;2023-08-08T16:50:29;2.10;;;0.63;;
46417;SDS011;69884;64.758;20.962;2023-08-08T16:53:10;1.75;;;0.60;;
46417;SDS011;69884;64.758;20.962;2023-08-08T16:55:53;1.53;;;0.50;;
46417;SDS011;69884;64.758;20.962;2023-08-08T17:11:07;2.30;;;0.50;;
46417;SDS011;69884;64.758;20.962;2023-08-08T17:27:54;2.10;;;0.63;;
46417;SDS011;69884;64.758;20.962;2023-08-08T17:30:47;3.80;;;0.80;;
46417;SDS011;69884;64.758;20.962;2023-08-08T17:33:56;2.85;;;0.70;;
46417;SDS011;69884;64.758;20.962;2023-08-08T17:36:52;2.60;;;0.77;;
46417;SDS011;69884;64.758;20.962;2023-08-08T17:39:37;2.35;;;0.65;;
46417;SDS011;69884;64.758;20.962;2023-08-08T17:45:44;2.15;;;0.60;;
46417;SDS011;69884;64.758;20.962;2023-08-08T19:10:24;1.88;;;0.70;;
46417;SDS011;69884;64.758;20.962;2023-08-08T19:12:50;2.30;;;0.50;;
46417;SDS011;69884;64.758;20.962;2023-08-08T19:15:15;4.77;;;0.60;;
46417;SDS011;69884;64.758;20.962;2023-08-08T19:17:40;2.50;;;0.50;;
46417;SDS011;69884;64.758;20.962;2023-08-08T19:20:06;1.85;;;0.50;;
46417;SDS011;69884;64.758;20.962;2023-08-08T19:22:32;9.27;;;0.80;;
46417;SDS011;69884;64.758;20.962;2023-08-08T19:24:57;4.13;;;0.73;;
46417;SDS011;69884;64.758;20.962;2023-08-08T19:27:23;2.70;;;0.60;;
46417;SDS011;69884;64.758;20.962;2023-08-08T19:29:48;2.72;;;0.70;;
46417;SDS011;69884;64.758;20.962;2023-08-08T19:32:13;1.35;;;0.50;;
46417;SDS011;69884;64.758;20.962;2023-08-08T19:34:41;1.77;;;0.50;;
46417;SDS011;69884;64.758;20.962;2023-08-08T19:37:06;0.98;;;0.50;;
46417;SDS011;69884;64.758;20.962;2023-08-08T19:39:31;4.23;;;0.60;;
46417;SDS011;69884;64.758;20.962;2023-08-08T19:41:57;3.00;;;0.60;;
46417;SDS011;69884;64.758;20.962;2023-08-08T19:44:23;4.68;;;0.80;;
46417;SDS011;69884;64.758;20.962;2023-08-08T19:46:48;3.00;;;0.90;;
46417;SDS011;69884;64.758;20.962;2023-08-08T19:49:13;3.07;;;1.00;;
46417;SDS011;69884;64.758;20.962;2023-08-08T19:51:39;4.43;;;0.80;;
46417;SDS011;69884;64.758;20.962;2023-08-08T19:54:04;2.83;;;0.80;;
46417;SDS011;69884;64.758;20.962;2023-08-08T19:56:30;2.37;;;0.70;;
46417;SDS011;69884;64.758;20.962;2023-08-08T19:58:55;2.30;;;0.70;;
46417;SDS011;69884;64.758;20.962;2023-08-08T20:01:20;3.63;;;0.80;;
46417;SDS011;69884;64.758;20.962;2023-08-08T20:03:46;3.30;;;0.90;;
46417;SDS011;69884;64.758;20.962;2023-08-08T20:06:12;2.33;;;0.63;;
46417;SDS011;69884;64.758;20.962;2023-08-08T20:08:37;2.07;;;0.80;;
46417;SDS011;69884;64.758;20.962;2023-08-08T20:11:02;2.85;;;0.60;;
46417;SDS011;69884;64.758;20.962;2023-08-08T20:13:30;2.08;;;0.63;;
